sensor_id;sensor_type;location;lat;lon;timestamp;P1;durP1;ratioP1;P2;durP2;ratioP2
68010;SDS011;54794;48.348;7.878;2023-04-19T00:00:52;2.00;;;1.45;;
68010;SDS011;54794;48.348;7.878;2023-04-19T00:03:29;3.53;;;1.70;;
68010;SDS011;54794;48.348;7.878;2023-04-19T00:06:05;2.85;;;1.55;;
68010;SDS011;54794;48.348;7.878;2023-04-19T00:08:36;2.70;;;1.65;;
68010;SDS011;54794;48.348;7.878;2023-04-19T00:11:20;2.22;;;1.42;;
68010;SDS011;54794;48.348;7.878;2023-04-19T00:14:08;2.30;;;1.48;;
68010;SDS011;54794;48.348;7.878;2023-04-19T00:16:59;2.17;;;1.45;;
68010;SDS011;54794;48.348;7.878;2023-04-19T00:19:33;1.77;;;1.38;;
68010;SDS011;54794;48.348;7.878;2023-04-19T00:22:00;1.60;;;1.33;;
68010;SDS011;54794;48.348;7.878;2023-04-19T00:24:29;3.25;;;1.70;;
68010;SDS011;54794;48.348;7.878;2023-04-19T00:26:59;2.42;;;1.75;;
68010;SDS011;54794;48.348;7.878;2023-04-19T00:29:35;2.42;;;1.40;;
68010;SDS011;54794;48.348;7.878;2023-04-19T00:32:06;1.75;;;1.35;;
68010;SDS011;54794;48.348;7.878;2023-04-19T00:34:44;3.53;;;1.20;;
68010;SDS011;54794;48.348;7.878;2023-04-19T00:40:01;2.05;;;1.48;;
68010;SDS011;54794;48.348;7.878;2023-04-19T00:42:45;2.28;;;1.70;;
68010;SDS011;54794;48.348;7.878;2023-04-19T00:45:23;3.08;;;1.73;;
68010;SDS011;54794;48.348;7.878;2023-04-19T00:48:05;2.42;;;1.65;;
68010;SDS011;54794;48.348;7.878;2023-04-19T00:50:37;2.25;;;1.55;;
68010;SDS011;54794;48.348;7.878;2023-04-19T00:53:11;2.28;;;1.77;;
68010;SDS011;54794;48.348;7.878;2023-04-19T00:55:50;2.78;;;1.77;;
68010;SDS011;54794;48.348;7.878;2023-04-19T00:58:25;2.28;;;1.70;;
68010;SDS011;54794;48.348;7.878;2023-04-19T01:01:01;2.22;;;1.58;;
68010;SDS011;54794;48.348;7.878;2023-04-19T01:03:45;2.28;;;1.80;;
68010;SDS011;54794;48.348;7.878;2023-04-19T01:06:23;3.88;;;1.65;;
68010;SDS011;54794;48.348;7.878;2023-04-19T01:08:56;3.22;;;1.98;;
68010;SDS011;54794;48.348;7.878;2023-04-19T01:11:36;2.30;;;1.60;;
68010;SDS011;54794;48.348;7.878;2023-04-19T01:14:08;3.60;;;1.50;;
68010;SDS011;54794;48.348;7.878;2023-04-19T01:16:44;2.10;;;1.40;;
68010;SDS011;54794;48.348;7.878;2023-04-19T01:19:19;2.35;;;1.63;;
68010;SDS011;54794;48.348;7.878;2023-04-19T01:22:02;1.60;;;1.27;;
68010;SDS011;54794;48.348;7.878;2023-04-19T01:24:53;3.85;;;1.35;;
68010;SDS011;54794;48.348;7.878;2023-04-19T01:27:30;2.85;;;1.50;;
68010;SDS011;54794;48.348;7.878;2023-04-19T01:30:03;1.48;;;1.08;;
68010;SDS011;54794;48.348;7.878;2023-04-19T01:32:37;2.13;;;1.60;;
68010;SDS011;54794;48.348;7.878;2023-04-19T01:35:08;2.05;;;1.60;;
68010;SDS011;54794;48.348;7.878;2023-04-19T01:37:58;2.45;;;1.73;;
68010;SDS011;54794;48.348;7.878;2023-04-19T01:40:35;2.05;;;1.63;;
68010;SDS011;54794;48.348;7.878;2023-04-19T01:43:17;2.00;;;1.50;;
68010;SDS011;54794;48.348;7.878;2023-04-19T01:45:53;2.40;;;1.73;;
68010;SDS011;54794;48.348;7.878;2023-04-19T01:48:22;2.47;;;1.60;;
68010;SDS011;54794;48.348;7.878;2023-04-19T01:50:59;2.50;;;2.05;;
68010;SDS011;54794;48.348;7.878;2023-04-19T01:56:12;1.85;;;1.40;;
68010;SDS011;54794;48.348;7.878;2023-04-19T01:58:50;1.85;;;1.45;;
68010;SDS011;54794;48.348;7.878;2023-04-19T02:01:22;2.47;;;1.65;;
68010;SDS011;54794;48.348;7.878;2023-04-19T02:04:03;2.67;;;1.75;;
68010;SDS011;54794;48.348;7.878;2023-04-19T02:06:37;2.30;;;1.63;;
68010;SDS011;54794;48.348;7.878;2023-04-19T02:09:07;2.15;;;1.63;;
68010;SDS011;54794;48.348;7.878;2023-04-19T02:11:34;2.40;;;1.63;;
68010;SDS011;54794;48.348;7.878;2023-04-19T02:14:05;2.30;;;1.63;;
68010;SDS011;54794;48.348;7.878;2023-04-19T02:16:40;3.35;;;1.60;;
68010;SDS011;54794;48.348;7.878;2023-04-19T02:19:12;2.28;;;1.85;;
68010;SDS011;54794;48.348;7.878;2023-04-19T02:21:48;2.47;;;1.65;;
68010;SDS011;54794;48.348;7.878;2023-04-19T02:24:18;2.28;;;1.73;;
68010;SDS011;54794;48.348;7.878;2023-04-19T02:26:52;2.70;;;2.05;;
68010;SDS011;54794;48.348;7.878;2023-04-19T02:29:24;2.28;;;1.73;;
68010;SDS011;54794;48.348;7.878;2023-04-19T02:31:58;2.50;;;1.80;;
68010;SDS011;54794;48.348;7.878;2023-04-19T02:34:28;2.17;;;1.70;;
68010;SDS011;54794;48.348;7.878;2023-04-19T02:36:57;2.55;;;1.85;;
68010;SDS011;54794;48.348;7.878;2023-04-19T02:39:27;1.98;;;1.65;;
68010;SDS011;54794;48.348;7.878;2023-04-19T02:41:57;2.05;;;1.60;;
68010;SDS011;54794;48.348;7.878;2023-04-19T02:44:34;2.30;;;1.75;;
68010;SDS011;54794;48.348;7.878;2023-04-19T02:47:14;3.20;;;2.20;;
68010;SDS011;54794;48.348;7.878;2023-04-19T02:49:49;2.40;;;1.80;;
68010;SDS011;54794;48.348;7.878;2023-04-19T02:52:22;3.25;;;1.90;;
68010;SDS011;54794;48.348;7.878;2023-04-19T02:54:56;2.90;;;1.93;;
68010;SDS011;54794;48.348;7.878;2023-04-19T02:57:29;2.67;;;1.73;;
68010;SDS011;54794;48.348;7.878;2023-04-19T02:59:56;2.35;;;1.90;;
68010;SDS011;54794;48.348;7.878;2023-04-19T03:02:28;2.03;;;1.70;;
68010;SDS011;54794;48.348;7.878;2023-04-19T03:05:14;4.63;;;1.92;;
68010;SDS011;54794;48.348;7.878;2023-04-19T03:07:46;2.83;;;1.75;;
68010;SDS011;54794;48.348;7.878;2023-04-19T03:10:28;2.70;;;1.88;;
68010;SDS011;54794;48.348;7.878;2023-04-19T03:13:04;2.55;;;1.67;;
68010;SDS011;54794;48.348;7.878;2023-04-19T03:15:36;2.15;;;1.80;;
68010;SDS011;54794;48.348;7.878;2023-04-19T03:18:08;3.13;;;1.88;;
68010;SDS011;54794;48.348;7.878;2023-04-19T03:20:38;4.93;;;1.90;;
68010;SDS011;54794;48.348;7.878;2023-04-19T03:23:08;2.28;;;1.65;;
68010;SDS011;54794;48.348;7.878;2023-04-19T03:25:38;3.03;;;1.92;;
68010;SDS011;54794;48.348;7.878;2023-04-19T03:28:10;2.10;;;1.60;;
68010;SDS011;54794;48.348;7.878;2023-04-19T03:30:47;2.25;;;1.67;;
68010;SDS011;54794;48.348;7.878;2023-04-19T03:33:21;2.47;;;1.60;;
68010;SDS011;54794;48.348;7.878;2023-04-19T03:35:54;1.67;;;1.48;;
68010;SDS011;54794;48.348;7.878;2023-04-19T03:38:25;2.60;;;1.70;;
68010;SDS011;54794;48.348;7.878;2023-04-19T03:41:16;2.13;;;1.60;;
68010;SDS011;54794;48.348;7.878;2023-04-19T03:43:51;1.80;;;1.25;;
68010;SDS011;54794;48.348;7.878;2023-04-19T03:46:23;2.33;;;1.38;;
68010;SDS011;54794;48.348;7.878;2023-04-19T03:49:03;2.40;;;1.70;;
68010;SDS011;54794;48.348;7.878;2023-04-19T03:51:36;2.08;;;1.67;;
68010;SDS011;54794;48.348;7.878;2023-04-19T03:54:12;2.20;;;1.60;;
68010;SDS011;54794;48.348;7.878;2023-04-19T03:56:51;2.35;;;1.77;;
68010;SDS011;54794;48.348;7.878;2023-04-19T03:59:17;1.90;;;1.48;;
68010;SDS011;54794;48.348;7.878;2023-04-19T04:01:49;2.10;;;1.55;;
68010;SDS011;54794;48.348;7.878;2023-04-19T04:04:21;2.17;;;1.60;;
68010;SDS011;54794;48.348;7.878;2023-04-19T04:06:56;2.17;;;1.67;;
68010;SDS011;54794;48.348;7.878;2023-04-19T04:09:31;2.15;;;1.60;;
68010;SDS011;54794;48.348;7.878;2023-04-19T04:12:03;3.40;;;1.70;;
68010;SDS011;54794;48.348;7.878;2023-04-19T04:14:34;1.92;;;1.52;;
68010;SDS011;54794;48.348;7.878;2023-04-19T04:17:11;3.08;;;1.55;;
68010;SDS011;54794;48.348;7.878;2023-04-19T04:19:40;2.30;;;1.67;;
68010;SDS011;54794;48.348;7.878;2023-04-19T04:22:12;2.00;;;1.30;;
68010;SDS011;54794;48.348;7.878;2023-04-19T04:24:42;3.10;;;1.80;;
68010;SDS011;54794;48.348;7.878;2023-04-19T04:27:12;2.42;;;1.92;;
68010;SDS011;54794;48.348;7.878;2023-04-19T04:29:46;2.45;;;1.60;;
68010;SDS011;54794;48.348;7.878;2023-04-19T04:32:22;3.20;;;2.10;;
68010;SDS011;54794;48.348;7.878;2023-04-19T04:34:51;2.97;;;1.70;;
68010;SDS011;54794;48.348;7.878;2023-04-19T04:37:23;2.40;;;1.75;;
68010;SDS011;54794;48.348;7.878;2023-04-19T04:40:05;2.05;;;1.52;;
68010;SDS011;54794;48.348;7.878;2023-04-19T04:42:41;2.88;;;1.77;;
68010;SDS011;54794;48.348;7.878;2023-04-19T04:45:13;2.38;;;1.55;;
68010;SDS011;54794;48.348;7.878;2023-04-19T04:47:47;2.35;;;1.67;;
68010;SDS011;54794;48.348;7.878;2023-04-19T04:50:19;2.03;;;1.60;;
68010;SDS011;54794;48.348;7.878;2023-04-19T04:52:51;3.38;;;1.90;;
68010;SDS011;54794;48.348;7.878;2023-04-19T04:55:23;2.35;;;1.60;;
68010;SDS011;54794;48.348;7.878;2023-04-19T04:57:55;2.50;;;1.95;;
68010;SDS011;54794;48.348;7.878;2023-04-19T05:17:04;1.92;;;1.33;;
68010;SDS011;54794;48.348;7.878;2023-04-19T05:41:11;1.60;;;1.20;;
68010;SDS011;54794;48.348;7.878;2023-04-19T05:44:16;2.00;;;1.70;;
68010;SDS011;54794;48.348;7.878;2023-04-19T05:46:43;2.15;;;1.58;;
68010;SDS011;54794;48.348;7.878;2023-04-19T05:49:16;2.20;;;1.70;;
68010;SDS011;54794;48.348;7.878;2023-04-19T05:53:02;1.95;;;1.70;;
68010;SDS011;54794;48.348;7.878;2023-04-19T05:59:22;2.60;;;1.73;;
68010;SDS011;54794;48.348;7.878;2023-04-19T06:02:42;2.33;;;1.63;;
68010;SDS011;54794;48.348;7.878;2023-04-19T06:06:33;3.30;;;2.20;;
68010;SDS011;54794;48.348;7.878;2023-04-19T06:10:14;2.90;;;2.17;;
68010;SDS011;54794;48.348;7.878;2023-04-19T06:34:31;2.35;;;1.70;;
68010;SDS011;54794;48.348;7.878;2023-04-19T06:51:00;1.85;;;1.58;;
68010;SDS011;54794;48.348;7.878;2023-04-19T07:07:11;2.80;;;2.13;;
68010;SDS011;54794;48.348;7.878;2023-04-19T07:09:38;2.80;;;1.75;;
68010;SDS011;54794;48.348;7.878;2023-04-19T07:45:59;3.88;;;2.28;;
68010;SDS011;54794;48.348;7.878;2023-04-19T08:28:35;4.05;;;2.25;;
68010;SDS011;54794;48.348;7.878;2023-04-19T08:55:22;4.60;;;3.10;;
68010;SDS011;54794;48.348;7.878;2023-04-19T09:08:40;4.40;;;3.03;;
68010;SDS011;54794;48.348;7.878;2023-04-19T09:11:13;5.22;;;3.50;;
68010;SDS011;54794;48.348;7.878;2023-04-19T09:17:43;5.10;;;3.50;;
68010;SDS011;54794;48.348;7.878;2023-04-19T09:41:50;4.32;;;3.00;;
68010;SDS011;54794;48.348;7.878;2023-04-19T09:44:21;4.18;;;2.75;;
68010;SDS011;54794;48.348;7.878;2023-04-19T09:46:52;3.40;;;2.78;;
68010;SDS011;54794;48.348;7.878;2023-04-19T09:49:21;4.50;;;3.30;;
68010;SDS011;54794;48.348;7.878;2023-04-19T09:52:10;4.28;;;2.92;;
68010;SDS011;54794;48.348;7.878;2023-04-19T09:54:40;4.10;;;2.90;;
68010;SDS011;54794;48.348;7.878;2023-04-19T09:57:07;3.65;;;2.70;;
68010;SDS011;54794;48.348;7.878;2023-04-19T09:59:34;3.90;;;2.88;;
68010;SDS011;54794;48.348;7.878;2023-04-19T10:02:01;3.50;;;2.63;;
68010;SDS011;54794;48.348;7.878;2023-04-19T10:04:31;2.67;;;2.22;;
68010;SDS011;54794;48.348;7.878;2023-04-19T10:07:09;3.33;;;2.78;;
68010;SDS011;54794;48.348;7.878;2023-04-19T10:09:41;2.83;;;2.30;;
68010;SDS011;54794;48.348;7.878;2023-04-19T10:12:14;3.30;;;2.50;;
68010;SDS011;54794;48.348;7.878;2023-04-19T10:14:46;4.88;;;3.33;;
68010;SDS011;54794;48.348;7.878;2023-04-19T10:17:14;3.70;;;2.72;;
68010;SDS011;54794;48.348;7.878;2023-04-19T10:19:42;5.50;;;3.10;;
68010;SDS011;54794;48.348;7.878;2023-04-19T10:22:11;4.95;;;2.80;;
68010;SDS011;54794;48.348;7.878;2023-04-19T10:24:39;5.28;;;2.55;;
68010;SDS011;54794;48.348;7.878;2023-04-19T10:27:36;3.35;;;2.85;;
68010;SDS011;54794;48.348;7.878;2023-04-19T10:30:04;3.97;;;2.72;;
68010;SDS011;54794;48.348;7.878;2023-04-19T10:32:39;3.15;;;2.42;;
68010;SDS011;54794;48.348;7.878;2023-04-19T10:35:09;3.45;;;2.35;;
68010;SDS011;54794;48.348;7.878;2023-04-19T10:38:03;4.10;;;2.35;;
68010;SDS011;54794;48.348;7.878;2023-04-19T10:43:32;5.07;;;3.10;;
68010;SDS011;54794;48.348;7.878;2023-04-19T10:46:07;4.18;;;2.90;;
68010;SDS011;54794;48.348;7.878;2023-04-19T10:48:35;4.47;;;2.60;;
68010;SDS011;54794;48.348;7.878;2023-04-19T10:54:42;3.92;;;2.95;;
68010;SDS011;54794;48.348;7.878;2023-04-19T10:57:09;3.55;;;2.40;;
68010;SDS011;54794;48.348;7.878;2023-04-19T10:59:37;6.15;;;2.78;;
68010;SDS011;54794;48.348;7.878;2023-04-19T11:06:14;3.50;;;2.53;;
68010;SDS011;54794;48.348;7.878;2023-04-19T11:08:46;2.97;;;2.35;;
68010;SDS011;54794;48.348;7.878;2023-04-19T11:11:13;4.30;;;2.50;;
68010;SDS011;54794;48.348;7.878;2023-04-19T11:13:41;2.97;;;2.55;;
68010;SDS011;54794;48.348;7.878;2023-04-19T11:16:22;4.15;;;2.75;;
68010;SDS011;54794;48.348;7.878;2023-04-19T11:19:09;5.22;;;2.47;;
68010;SDS011;54794;48.348;7.878;2023-04-19T11:21:45;3.42;;;2.30;;
68010;SDS011;54794;48.348;7.878;2023-04-19T11:24:13;3.60;;;2.50;;
68010;SDS011;54794;48.348;7.878;2023-04-19T11:26:43;2.88;;;2.22;;
68010;SDS011;54794;48.348;7.878;2023-04-19T11:29:11;2.85;;;2.25;;
68010;SDS011;54794;48.348;7.878;2023-04-19T11:31:39;2.67;;;2.10;;
68010;SDS011;54794;48.348;7.878;2023-04-19T11:34:14;3.15;;;2.33;;
68010;SDS011;54794;48.348;7.878;2023-04-19T11:36:48;3.50;;;2.70;;
68010;SDS011;54794;48.348;7.878;2023-04-19T11:39:18;3.80;;;2.97;;
68010;SDS011;54794;48.348;7.878;2023-04-19T11:41:46;4.30;;;2.75;;
68010;SDS011;54794;48.348;7.878;2023-04-19T11:44:16;3.45;;;2.42;;
68010;SDS011;54794;48.348;7.878;2023-04-19T11:47:01;3.65;;;2.50;;
68010;SDS011;54794;48.348;7.878;2023-04-19T11:49:31;3.00;;;2.33;;
68010;SDS011;54794;48.348;7.878;2023-04-19T11:51:59;4.22;;;2.60;;
68010;SDS011;54794;48.348;7.878;2023-04-19T11:54:31;2.70;;;2.40;;
68010;SDS011;54794;48.348;7.878;2023-04-19T11:59:31;2.65;;;1.85;;
68010;SDS011;54794;48.348;7.878;2023-04-19T12:02:04;3.10;;;2.10;;
68010;SDS011;54794;48.348;7.878;2023-04-19T12:04:37;3.75;;;2.70;;
68010;SDS011;54794;48.348;7.878;2023-04-19T12:07:05;2.80;;;2.30;;
68010;SDS011;54794;48.348;7.878;2023-04-19T12:09:32;2.90;;;2.03;;
68010;SDS011;54794;48.348;7.878;2023-04-19T12:12:01;2.28;;;1.75;;
68010;SDS011;54794;48.348;7.878;2023-04-19T12:17:12;2.75;;;2.00;;
68010;SDS011;54794;48.348;7.878;2023-04-19T12:19:46;2.55;;;1.80;;
68010;SDS011;54794;48.348;7.878;2023-04-19T12:22:17;2.53;;;1.92;;
68010;SDS011;54794;48.348;7.878;2023-04-19T12:24:51;2.80;;;1.70;;
68010;SDS011;54794;48.348;7.878;2023-04-19T12:27:19;2.97;;;2.03;;
68010;SDS011;54794;48.348;7.878;2023-04-19T12:29:46;2.50;;;2.05;;
68010;SDS011;54794;48.348;7.878;2023-04-19T12:32:13;2.85;;;2.00;;
68010;SDS011;54794;48.348;7.878;2023-04-19T12:34:41;2.75;;;2.30;;
68010;SDS011;54794;48.348;7.878;2023-04-19T12:37:08;2.97;;;2.13;;
68010;SDS011;54794;48.348;7.878;2023-04-19T12:39:35;2.92;;;2.00;;
68010;SDS011;54794;48.348;7.878;2023-04-19T12:42:02;7.03;;;2.47;;
68010;SDS011;54794;48.348;7.878;2023-04-19T12:44:31;2.97;;;2.10;;
68010;SDS011;54794;48.348;7.878;2023-04-19T12:46:58;3.13;;;2.20;;
68010;SDS011;54794;48.348;7.878;2023-04-19T12:49:24;2.72;;;2.00;;
68010;SDS011;54794;48.348;7.878;2023-04-19T12:51:51;2.88;;;2.05;;
68010;SDS011;54794;48.348;7.878;2023-04-19T12:54:22;2.40;;;1.83;;
68010;SDS011;54794;48.348;7.878;2023-04-19T12:56:49;2.55;;;1.95;;
68010;SDS011;54794;48.348;7.878;2023-04-19T12:59:16;3.47;;;2.75;;
68010;SDS011;54794;48.348;7.878;2023-04-19T13:04:10;3.38;;;2.17;;
68010;SDS011;54794;48.348;7.878;2023-04-19T13:06:37;2.38;;;1.80;;
68010;SDS011;54794;48.348;7.878;2023-04-19T13:09:08;2.67;;;1.80;;
68010;SDS011;54794;48.348;7.878;2023-04-19T13:11:38;4.00;;;2.40;;
68010;SDS011;54794;48.348;7.878;2023-04-19T13:14:08;3.90;;;2.47;;
68010;SDS011;54794;48.348;7.878;2023-04-19T13:16:46;4.93;;;2.70;;
68010;SDS011;54794;48.348;7.878;2023-04-19T13:19:31;3.72;;;2.45;;
68010;SDS011;54794;48.348;7.878;2023-04-19T13:21:58;5.90;;;2.40;;
68010;SDS011;54794;48.348;7.878;2023-04-19T13:24:25;2.83;;;2.00;;
68010;SDS011;54794;48.348;7.878;2023-04-19T13:26:52;3.63;;;1.92;;
68010;SDS011;54794;48.348;7.878;2023-04-19T13:29:19;2.33;;;2.00;;
68010;SDS011;54794;48.348;7.878;2023-04-19T13:31:48;3.63;;;2.47;;
68010;SDS011;54794;48.348;7.878;2023-04-19T13:34:15;3.30;;;2.40;;
68010;SDS011;54794;48.348;7.878;2023-04-19T13:37:09;3.13;;;2.22;;
68010;SDS011;54794;48.348;7.878;2023-04-19T13:39:36;4.00;;;2.38;;
68010;SDS011;54794;48.348;7.878;2023-04-19T13:54:31;2.15;;;1.70;;
68010;SDS011;54794;48.348;7.878;2023-04-19T13:56:58;2.30;;;1.95;;
68010;SDS011;54794;48.348;7.878;2023-04-19T14:02:55;2.67;;;2.05;;
68010;SDS011;54794;48.348;7.878;2023-04-19T14:05:22;3.03;;;1.88;;
68010;SDS011;54794;48.348;7.878;2023-04-19T14:07:49;2.78;;;2.08;;
68010;SDS011;54794;48.348;7.878;2023-04-19T14:10:17;3.13;;;2.40;;
68010;SDS011;54794;48.348;7.878;2023-04-19T14:12:45;3.10;;;2.22;;
68010;SDS011;54794;48.348;7.878;2023-04-19T14:15:19;3.58;;;2.30;;
68010;SDS011;54794;48.348;7.878;2023-04-19T14:17:48;3.38;;;2.22;;
68010;SDS011;54794;48.348;7.878;2023-04-19T14:20:17;5.88;;;2.20;;
68010;SDS011;54794;48.348;7.878;2023-04-19T14:22:45;4.13;;;2.70;;
68010;SDS011;54794;48.348;7.878;2023-04-19T14:49:26;2.90;;;2.33;;
68010;SDS011;54794;48.348;7.878;2023-04-19T14:51:54;3.63;;;2.53;;
68010;SDS011;54794;48.348;7.878;2023-04-19T15:01:12;3.55;;;2.70;;
68010;SDS011;54794;48.348;7.878;2023-04-19T15:08:13;3.08;;;2.30;;
68010;SDS011;54794;48.348;7.878;2023-04-19T15:10:55;4.22;;;2.60;;
68010;SDS011;54794;48.348;7.878;2023-04-19T15:13:22;4.47;;;2.88;;
68010;SDS011;54794;48.348;7.878;2023-04-19T15:15:50;3.75;;;2.63;;
68010;SDS011;54794;48.348;7.878;2023-04-19T15:18:16;4.25;;;2.65;;
68010;SDS011;54794;48.348;7.878;2023-04-19T15:20:46;2.80;;;1.90;;
68010;SDS011;54794;48.348;7.878;2023-04-19T15:23:31;2.58;;;2.08;;
68010;SDS011;54794;48.348;7.878;2023-04-19T15:25:58;3.17;;;2.28;;
68010;SDS011;54794;48.348;7.878;2023-04-19T15:35:18;2.93;;;1.87;;
68010;SDS011;54794;48.348;7.878;2023-04-19T15:37:46;2.65;;;2.08;;
68010;SDS011;54794;48.348;7.878;2023-04-19T15:40:16;2.92;;;2.30;;
68010;SDS011;54794;48.348;7.878;2023-04-19T15:42:52;2.78;;;2.03;;
68010;SDS011;54794;48.348;7.878;2023-04-19T15:45:19;3.40;;;2.15;;
68010;SDS011;54794;48.348;7.878;2023-04-19T15:47:46;3.63;;;2.53;;
68010;SDS011;54794;48.348;7.878;2023-04-19T15:53:02;3.45;;;2.38;;
68010;SDS011;54794;48.348;7.878;2023-04-19T15:55:31;2.85;;;2.00;;
68010;SDS011;54794;48.348;7.878;2023-04-19T15:57:59;2.72;;;2.10;;
68010;SDS011;54794;48.348;7.878;2023-04-19T16:00:27;2.78;;;2.05;;
68010;SDS011;54794;48.348;7.878;2023-04-19T16:03:02;3.13;;;2.22;;
68010;SDS011;54794;48.348;7.878;2023-04-19T16:05:30;3.30;;;1.83;;
68010;SDS011;54794;48.348;7.878;2023-04-19T16:08:09;2.67;;;2.20;;
68010;SDS011;54794;48.348;7.878;2023-04-19T16:10:48;3.70;;;2.13;;
68010;SDS011;54794;48.348;7.878;2023-04-19T16:13:15;4.22;;;2.17;;
68010;SDS011;54794;48.348;7.878;2023-04-19T16:15:43;3.30;;;2.28;;
68010;SDS011;54794;48.348;7.878;2023-04-19T16:20:38;2.53;;;2.08;;
68010;SDS011;54794;48.348;7.878;2023-04-19T16:23:06;3.80;;;2.40;;
68010;SDS011;54794;48.348;7.878;2023-04-19T16:25:34;3.53;;;2.35;;
68010;SDS011;54794;48.348;7.878;2023-04-19T16:28:01;2.83;;;2.05;;
68010;SDS011;54794;48.348;7.878;2023-04-19T16:30:28;3.17;;;2.00;;
68010;SDS011;54794;48.348;7.878;2023-04-19T16:32:55;2.97;;;1.83;;
68010;SDS011;54794;48.348;7.878;2023-04-19T16:35:24;2.03;;;1.60;;
68010;SDS011;54794;48.348;7.878;2023-04-19T16:37:51;2.88;;;2.10;;
68010;SDS011;54794;48.348;7.878;2023-04-19T16:40:22;2.30;;;1.88;;
68010;SDS011;54794;48.348;7.878;2023-04-19T16:42:49;3.63;;;2.10;;
68010;SDS011;54794;48.348;7.878;2023-04-19T16:45:16;2.78;;;2.08;;
68010;SDS011;54794;48.348;7.878;2023-04-19T16:47:43;2.95;;;2.13;;
68010;SDS011;54794;48.348;7.878;2023-04-19T16:50:11;3.38;;;2.28;;
68010;SDS011;54794;48.348;7.878;2023-04-19T16:52:39;2.92;;;2.22;;
68010;SDS011;54794;48.348;7.878;2023-04-19T16:55:06;3.03;;;2.08;;
68010;SDS011;54794;48.348;7.878;2023-04-19T16:57:34;2.35;;;1.70;;
68010;SDS011;54794;48.348;7.878;2023-04-19T17:02:40;1.48;;;1.23;;
68010;SDS011;54794;48.348;7.878;2023-04-19T17:05:07;1.45;;;1.13;;
68010;SDS011;54794;48.348;7.878;2023-04-19T17:07:34;1.80;;;1.02;;
68010;SDS011;54794;48.348;7.878;2023-04-19T17:10:01;1.65;;;0.98;;
68010;SDS011;54794;48.348;7.878;2023-04-19T17:12:28;2.08;;;0.88;;
68010;SDS011;54794;48.348;7.878;2023-04-19T17:14:55;1.88;;;0.95;;
68010;SDS011;54794;48.348;7.878;2023-04-19T17:17:22;2.08;;;0.90;;
68010;SDS011;54794;48.348;7.878;2023-04-19T17:19:49;1.65;;;1.13;;
68010;SDS011;54794;48.348;7.878;2023-04-19T17:22:16;2.40;;;1.50;;
68010;SDS011;54794;48.348;7.878;2023-04-19T17:24:43;1.63;;;1.10;;
68010;SDS011;54794;48.348;7.878;2023-04-19T17:27:10;1.40;;;0.90;;
68010;SDS011;54794;48.348;7.878;2023-04-19T17:29:37;1.58;;;1.08;;
68010;SDS011;54794;48.348;7.878;2023-04-19T17:32:04;2.05;;;1.20;;
68010;SDS011;54794;48.348;7.878;2023-04-19T17:34:32;1.38;;;1.08;;
68010;SDS011;54794;48.348;7.878;2023-04-19T17:37:02;1.40;;;1.20;;
68010;SDS011;54794;48.348;7.878;2023-04-19T17:39:29;1.17;;;0.80;;
68010;SDS011;54794;48.348;7.878;2023-04-19T17:41:56;1.73;;;1.23;;
68010;SDS011;54794;48.348;7.878;2023-04-19T17:44:23;2.15;;;0.98;;
68010;SDS011;54794;48.348;7.878;2023-04-19T17:46:50;1.23;;;0.80;;
68010;SDS011;54794;48.348;7.878;2023-04-19T17:49:17;1.33;;;0.85;;
68010;SDS011;54794;48.348;7.878;2023-04-19T17:52:02;1.38;;;1.08;;
68010;SDS011;54794;48.348;7.878;2023-04-19T17:54:35;1.50;;;1.10;;
68010;SDS011;54794;48.348;7.878;2023-04-19T17:57:02;1.77;;;1.40;;
68010;SDS011;54794;48.348;7.878;2023-04-19T17:59:30;1.92;;;1.13;;
68010;SDS011;54794;48.348;7.878;2023-04-19T18:01:57;1.90;;;1.13;;
68010;SDS011;54794;48.348;7.878;2023-04-19T18:04:24;2.67;;;1.70;;
68010;SDS011;54794;48.348;7.878;2023-04-19T18:06:51;2.63;;;1.27;;
68010;SDS011;54794;48.348;7.878;2023-04-19T18:09:18;2.60;;;1.90;;
68010;SDS011;54794;48.348;7.878;2023-04-19T18:11:45;1.95;;;1.40;;
68010;SDS011;54794;48.348;7.878;2023-04-19T18:14:12;1.67;;;1.05;;
68010;SDS011;54794;48.348;7.878;2023-04-19T18:19:07;2.30;;;1.45;;
68010;SDS011;54794;48.348;7.878;2023-04-19T18:21:34;1.67;;;1.25;;
68010;SDS011;54794;48.348;7.878;2023-04-19T18:24:02;1.55;;;1.13;;
68010;SDS011;54794;48.348;7.878;2023-04-19T18:26:36;2.22;;;1.40;;
68010;SDS011;54794;48.348;7.878;2023-04-19T18:29:07;1.80;;;1.25;;
68010;SDS011;54794;48.348;7.878;2023-04-19T18:31:35;2.67;;;1.63;;
68010;SDS011;54794;48.348;7.878;2023-04-19T18:34:02;2.88;;;1.52;;
68010;SDS011;54794;48.348;7.878;2023-04-19T18:36:29;2.85;;;1.48;;
68010;SDS011;54794;48.348;7.878;2023-04-19T18:38:57;2.22;;;1.67;;
68010;SDS011;54794;48.348;7.878;2023-04-19T18:41:24;2.28;;;1.50;;
68010;SDS011;54794;48.348;7.878;2023-04-19T18:43:51;1.75;;;1.45;;
68010;SDS011;54794;48.348;7.878;2023-04-19T18:46:39;1.92;;;1.40;;
68010;SDS011;54794;48.348;7.878;2023-04-19T18:49:06;3.47;;;1.77;;
68010;SDS011;54794;48.348;7.878;2023-04-19T18:51:33;1.92;;;1.42;;
68010;SDS011;54794;48.348;7.878;2023-04-19T18:54:04;2.63;;;1.70;;
68010;SDS011;54794;48.348;7.878;2023-04-19T18:56:31;2.22;;;1.45;;
68010;SDS011;54794;48.348;7.878;2023-04-19T18:59:18;2.28;;;1.30;;
68010;SDS011;54794;48.348;7.878;2023-04-19T19:01:45;2.15;;;1.60;;
68010;SDS011;54794;48.348;7.878;2023-04-19T19:04:17;1.48;;;1.20;;
68010;SDS011;54794;48.348;7.878;2023-04-19T19:07:06;1.55;;;1.13;;
68010;SDS011;54794;48.348;7.878;2023-04-19T19:09:53;1.38;;;1.05;;
68010;SDS011;54794;48.348;7.878;2023-04-19T19:12:22;1.55;;;1.02;;
68010;SDS011;54794;48.348;7.878;2023-04-19T19:14:49;1.80;;;1.30;;
68010;SDS011;54794;48.348;7.878;2023-04-19T19:17:16;1.63;;;1.38;;
68010;SDS011;54794;48.348;7.878;2023-04-19T19:19:43;2.72;;;1.58;;
68010;SDS011;54794;48.348;7.878;2023-04-19T19:22:10;2.00;;;1.45;;
68010;SDS011;54794;48.348;7.878;2023-04-19T19:24:52;1.27;;;0.98;;
68010;SDS011;54794;48.348;7.878;2023-04-19T19:27:19;2.30;;;1.42;;
68010;SDS011;54794;48.348;7.878;2023-04-19T19:29:48;1.92;;;1.40;;
68010;SDS011;54794;48.348;7.878;2023-04-19T19:32:15;1.20;;;1.02;;
68010;SDS011;54794;48.348;7.878;2023-04-19T19:34:42;1.88;;;1.33;;
68010;SDS011;54794;48.348;7.878;2023-04-19T19:37:24;2.33;;;1.38;;
68010;SDS011;54794;48.348;7.878;2023-04-19T19:39:51;2.45;;;1.48;;
68010;SDS011;54794;48.348;7.878;2023-04-19T19:42:21;2.55;;;1.75;;
68010;SDS011;54794;48.348;7.878;2023-04-19T19:44:52;4.43;;;2.60;;
68010;SDS011;54794;48.348;7.878;2023-04-19T19:47:21;3.45;;;2.08;;
68010;SDS011;54794;48.348;7.878;2023-04-19T19:49:49;4.45;;;2.60;;
68010;SDS011;54794;48.348;7.878;2023-04-19T19:52:36;4.55;;;3.05;;
68010;SDS011;54794;48.348;7.878;2023-04-19T19:55:04;6.70;;;4.00;;
68010;SDS011;54794;48.348;7.878;2023-04-19T19:57:33;5.85;;;3.50;;
68010;SDS011;54794;48.348;7.878;2023-04-19T20:00:03;3.85;;;2.63;;
68010;SDS011;54794;48.348;7.878;2023-04-19T20:02:55;3.63;;;1.95;;
68010;SDS011;54794;48.348;7.878;2023-04-19T20:05:24;3.90;;;2.47;;
68010;SDS011;54794;48.348;7.878;2023-04-19T20:07:51;2.40;;;1.88;;
68010;SDS011;54794;48.348;7.878;2023-04-19T20:10:31;6.93;;;2.10;;
68010;SDS011;54794;48.348;7.878;2023-04-19T20:12:57;2.67;;;1.65;;
68010;SDS011;54794;48.348;7.878;2023-04-19T20:15:26;3.00;;;1.80;;
68010;SDS011;54794;48.348;7.878;2023-04-19T20:17:55;2.58;;;1.65;;
68010;SDS011;54794;48.348;7.878;2023-04-19T20:20:22;3.20;;;1.67;;
68010;SDS011;54794;48.348;7.878;2023-04-19T20:22:49;2.72;;;1.50;;
68010;SDS011;54794;48.348;7.878;2023-04-19T20:25:16;2.45;;;1.40;;
68010;SDS011;54794;48.348;7.878;2023-04-19T20:27:43;2.40;;;1.67;;
68010;SDS011;54794;48.348;7.878;2023-04-19T20:30:10;2.13;;;1.63;;
68010;SDS011;54794;48.348;7.878;2023-04-19T20:35:08;1.92;;;1.20;;
68010;SDS011;54794;48.348;7.878;2023-04-19T20:37:38;2.15;;;1.50;;
68010;SDS011;54794;48.348;7.878;2023-04-19T20:40:06;2.15;;;1.73;;